Brown Field Municipal Airport San Diego US
ICAO: KSDM
IATA: SDM
Category: Medium
Scheduled Services: No

Elevation: 526 ft
TransAlt. 18000 ft.

Airport Communications:
SOCAL APP:124.35
ATIS:132.35
CLNC DEL:124.4
CTAF:126.5
SOCAL DEP:125.15
GND:124.4
TWR:126.5
UNICOM:122.95

KSDM Zoom In..

Runways:

(A) RW 08L length 7972 ft width 150 ft
---- / hdg 82

(B) RW 08R length 3180 ft width 150 ft
---- / hdg 82

(C) RW 26L length 3180 ft width 150 ft
---- / hdg 262

(D) RW 26R length 7972 ft width 150 ft
---- / hdg 262

Location; KSDM
Day. 19 / Time. 01.53 Zulu
* Altimeter: 29.96
* Temperature: 26° c. 78.8°f.
* Wind from: VRB° Speed 04 kn.
Dewpoint: -05° c.
Visibility: 10 Statute Miles.
Clouds: Clear (automated report).

KSDM 190153Z VRB04KT 10SM CLR 26/M05 A2996 RMK AO2 SLP140 T02611050

Going to: --> -->


Wind From VRB°
Speed 04 kn.

 
 
jpsmedia worldairports.se 2021   terms of use